Flight Track Log - Related Links

Times and Time Zones

All times are in EDT time to prevent confusion due to time zone crossing. See the UAL6858 flight status page for this flight to view local times or setup timezone preferences in your user account.

Time Position Orientation Groundspeed Altitude Reporting Facility
EDT Latitude Longitude Course Direction KTS MPH feet Rate Location/Type
Sun 04:27:02 PM 33.9360 -118.4130 263° West 158 182 1,200  Level FlightAware ADS-B
Sun 04:27:38 PM 33.9320 -118.4500 263° West 214 246 2,600 2,375 Climbing FlightAware ADS-B
Sun 04:27:50 PM 33.9250 -118.4640 239° Southwest 232 267 3,100 2,625 Climbing FlightAware ADS-B
Sun 04:28:10 PM 33.9130 -118.4830 233° Southwest 254 292 4,000 2,647 Climbing FlightAware ADS-B
Sun 04:28:24 PM 33.9010 -118.4990 228° Southwest 270 311 4,600 1,500 Climbing FlightAware ADS-B
Sun 04:28:54 PM 33.8730 -118.5330 225° Southwest 267 307 5,100 714 Climbing FlightAware ADS-B
Sun 04:29:06 PM 33.8600 -118.5400 204° Southwest 266 306 5,100 600 Level FlightAware ADS-B
Sun 04:29:14 PM 33.8510 -118.5420 190° South 268 308 5,300 3,000 Climbing FlightAware ADS-B
Sun 04:29:34 PM 33.8260 -118.5380 172° South 266 306 6,500 3,955 Climbing FlightAware ADS-B
Sun 04:29:58 PM 33.7960 -118.5340 174° South 267 307 8,200 4,050 Climbing FlightAware ADS-B
Sun 04:30:14 PM 33.7770 -118.5310 173° South 272 313 9,200 3,720 Climbing FlightAware ADS-B
Sun 04:30:48 PM 33.7350 -118.5250 173° South 279 321 11,300 3,081 Climbing FlightAware ADS-B
Sun 04:31:28 PM 33.6820 -118.5180 174° South 291 335 13,000 1,543 Climbing FlightAware ADS-B
Sun 04:31:58 PM 33.6400 -118.5100 171° South 291 335 13,100 143 Climbing FlightAware ADS-B
Sun 04:32:10 PM 33.6270 -118.5030 156° South 293 337 13,100 1,000 Level FlightAware ADS-B
Sun 04:32:22 PM 33.6140 -118.4870 134° Southeast 298 343 13,500 2,897 Climbing FlightAware ADS-B
Sun 04:32:39 PM 33.6050 -118.4630 114° Southeast 303 349 14,500 3,396 Climbing FlightAware ADS-B
Sun 04:33:15 PM 33.6050 -118.4040 90° East 326 375 16,500 2,545 Climbing FlightAware ADS-B
Sun 04:33:45 PM 33.6060 -118.3440 89° East 362 417 17,300 2,883 Climbing FlightAware ADS-B
Sun 04:34:32 PM 33.6080 -118.2480 89° East 372 428 20,200 3,896 Climbing FlightAware ADS-B
Sun 04:35:02 PM 33.6090 -118.1830 89° East 374 430 22,300 2,719 Climbing FlightAware ADS-B
Sun 04:35:36 PM 33.6100 -118.1110 89° East 397 457 23,100 583 Climbing FlightAware ADS-B
Sun 04:36:14 PM 33.6120 -118.0300 88° East 390 449 23,000 -81 Descending FlightAware ADS-B
Sun 04:36:50 PM 33.6130 -117.9490 89° East 390 449 23,000  Level FlightAware ADS-B
Sun 04:37:24 PM 33.6140 -117.8760 89° East 391 450 23,000 514 Level FlightAware ADS-B
Sun 04:38:00 PM 33.6150 -117.7970 89° East 396 456 23,600 1,909 Climbing FlightAware ADS-B
Sun 04:38:30 PM 33.6160 -117.7300 89° East 405 466 25,100 2,735 Climbing FlightAware ADS-B
Sun 04:39:08 PM 33.6170 -117.6500 89° East 417 480 26,700 2,763 Climbing FlightAware ADS-B
Sun 04:39:46 PM 33.6190 -117.5580 88° East 428 493 28,600 2,750 Climbing FlightAware ADS-B
Sun 04:40:20 PM 33.6190 -117.4730 90° East 440 506 30,000 2,314 Climbing FlightAware ADS-B
Sun 04:40:56 PM 33.6200 -117.3840 89° East 453 521 31,300 2,091 Climbing FlightAware ADS-B
Sun 04:41:26 PM 33.6210 -117.3080 89° East 465 535 32,300 2,029 Climbing FlightAware ADS-B
Sun 04:42:04 PM 33.6220 -117.2120 89° East 473 544 33,600 2,108 Climbing FlightAware ADS-B
Sun 04:42:40 PM 33.6230 -117.1160 89° East 477 549 34,900 1,853 Climbing FlightAware ADS-B
Sun 04:43:12 PM 33.6240 -117.0310 89° East 485 558 35,700 1,818 Climbing FlightAware ADS-B
Sun 04:43:46 PM 33.6250 -116.9380 89° East 486 559 36,900 2,118 Climbing FlightAware ADS-B
Sun 04:44:20 PM 33.6210 -116.8470 93° East 477 549 38,100 1,946 Climbing FlightAware ADS-B
Sun 04:45:00 PM 33.6080 -116.7450 99° East 470 541 39,300 1,737 Climbing FlightAware ADS-B
Sun 04:45:36 PM 33.5940 -116.6510 100° East 469 540 40,300 1,455 Climbing FlightAware ADS-B
Sun 04:46:06 PM 33.5830 -116.5740 100° East 469 540 40,900 609 Climbing FlightAware ADS-B
Sun 04:46:45 PM 33.5690 -116.4770 100° East 468 539 41,000 333 Climbing FlightAware ADS-B
Sun 04:47:18 PM 33.5570 -116.3950 100° East 468 539 41,300 870 Climbing FlightAware ADS-B
Sun 04:47:54 PM 33.5430 -116.2970 100° East 470 541 42,000 971 Climbing FlightAware ADS-B
Sun 04:48:26 PM 33.5310 -116.2200 101° East 474 545 42,400 822 Climbing FlightAware ADS-B
Sun 04:49:07 PM 33.5160 -116.1100 99° East 476 548 43,000 522 Climbing FlightAware ADS-B
Sun 04:49:35 PM 33.5070 -116.0390 99° East 475 547 43,000  Level FlightAware ADS-B
Sun 04:50:14 PM 33.4950 -115.9430 98° East 474 545 43,000  Level FlightAware ADS-B
Sun 04:50:49 PM 33.4830 -115.8520 99° East 473 544 43,000  Level FlightAware ADS-B
Sun 04:51:30 PM 33.4690 -115.7480 99° East 475 547 43,000  Level FlightAware ADS-B
Sun 04:52:04 PM 33.4570 -115.6580 99° East 476 548 43,000  Level FlightAware ADS-B
Sun 04:52:44 PM 33.4430 -115.5550 99° East 476 548 43,000  Level FlightAware ADS-B
Sun 04:53:14 PM 33.4320 -115.4770 100° East 478 550 43,000  Level FlightAware ADS-B
Sun 04:53:49 PM 33.4200 -115.3870 99° East 478 550 43,000  Level FlightAware ADS-B
Sun 04:54:24 PM 33.4070 -115.2950 100° East 479 551 43,000  Level FlightAware ADS-B
Sun 04:55:00 PM 33.3940 -115.2040 100° East 478 550 43,000  Level FlightAware ADS-B
Sun 04:55:39 PM 33.3800 -115.0990 99° East 478 550 43,000  Level FlightAware ADS-B
Sun 04:56:09 PM 33.3690 -115.0210 100° East 479 551 43,000  Level FlightAware ADS-B
Sun 04:56:44 PM 33.3560 -114.9300 100° East 479 551 43,000  Level FlightAware ADS-B
Sun 04:57:19 PM 33.3430 -114.8380 100° East 479 551 43,000  Level FlightAware ADS-B
Sun 04:57:55 PM 33.3300 -114.7470 100° East 478 550 43,000  Level FlightAware ADS-B
Sun 04:58:29 PM 33.3190 -114.6650 99° East 478 550 43,000  Level FlightAware ADS-B
Sun 04:59:19 PM 33.3000 -114.5320 100° East 476 548 43,000  Level FlightAware ADS-B
Sun 04:59:56 PM 33.2840 -114.4240 100° East 472 543 43,000  Level FlightAware ADS-B
Sun 05:00:27 PM 33.2720 -114.3450 100° East 472 543 43,000  Level FlightAware ADS-B
Sun 05:01:00 PM 33.2600 -114.2580 99° East 472 543 43,000  Level FlightAware ADS-B
Sun 05:01:40 PM 33.2450 -114.1560 100° East 474 545 43,000  Level FlightAware ADS-B
Sun 05:02:12 PM 33.2320 -114.0740 101° East 475 547 43,000  Level FlightAware ADS-B
Sun 05:02:50 PM 33.2180 -113.9760 100° East 476 548 43,000  Level FlightAware ADS-B
Sun 05:03:26 PM 33.2040 -113.8820 100° East 475 547 43,000  Level FlightAware ADS-B
Sun 05:04:00 PM 33.1910 -113.7960 100° East 473 544 43,000  Level FlightAware ADS-B
Sun 05:04:34 PM 33.1780 -113.7100 100° East 472 543 43,000  Level FlightAware ADS-B
Sun 05:05:08 PM 33.1650 -113.6220 100° East 471 542 43,000  Level FlightAware ADS-B
Sun 05:05:46 PM 33.1500 -113.5230 100° East 470 541 43,000  Level FlightAware ADS-B
Sun 05:06:22 PM 33.1360 -113.4320 100° East 473 544 43,000  Level FlightAware ADS-B
Sun 05:06:54 PM 33.1230 -113.3510 101° East 474 545 43,000  Level FlightAware ADS-B
Sun 05:07:32 PM 33.1080 -113.2540 100° East 474 545 43,000  Level FlightAware ADS-B
Sun 05:08:04 PM 33.0950 -113.1710 101° East 474 545 43,000  Level FlightAware ADS-B
Sun 05:08:37 PM 33.0820 -113.0870 100° East 475 547 43,000  Level FlightAware ADS-B
Sun 05:09:14 PM 33.0670 -112.9920 101° East 477 549 43,000  Level FlightAware ADS-B
Sun 05:09:50 PM 33.0530 -112.8990 100° East 477 549 43,000  Level FlightAware ADS-B
Sun 05:10:26 PM 33.0380 -112.8060 101° East 479 551 43,000  Level FlightAware ADS-B
Sun 05:11:00 PM 33.0240 -112.7170 101° East 479 551 43,000  Level FlightAware ADS-B
Sun 05:11:33 PM 33.0100 -112.6320 101° East 479 551 43,000  Level FlightAware ADS-B
Sun 05:12:12 PM 32.9940 -112.5320 101° East 479 551 43,000  Level FlightAware ADS-B
Sun 05:12:44 PM 32.9800 -112.4470 101° East 481 554 43,000  Level FlightAware ADS-B
Sun 05:13:20 PM 32.9650 -112.3520 101° East 480 552 43,000  Level FlightAware ADS-B
Sun 05:13:56 PM 32.9500 -112.2610 101° East 480 552 43,000  Level FlightAware ADS-B
Sun 05:14:28 PM 32.9360 -112.1770 101° East 481 554 43,000  Level FlightAware ADS-B
Sun 05:15:06 PM 32.9200 -112.0790 101° East 480 552 43,000  Level FlightAware ADS-B
Sun 05:15:36 PM 32.9070 -112.0030 101° East 481 554 43,000  Level FlightAware ADS-B
Sun 05:16:14 PM 32.8910 -111.9030 101° East 480 552 43,000  Level FlightAware ADS-B
Sun 05:16:50 PM 32.8750 -111.8090 101° East 479 551 43,000  Level FlightAware ADS-B
Sun 05:17:26 PM 32.8600 -111.7170 101° East 479 551 43,000  Level FlightAware ADS-B
Sun 05:18:02 PM 32.8440 -111.6250 102° East 479 551 43,000  Level FlightAware ADS-B
Sun 05:18:34 PM 32.8300 -111.5440 102° East 479 551 43,000  Level FlightAware ADS-B
Sun 05:19:08 PM 32.8150 -111.4550 101° East 480 552 43,000  Level FlightAware ADS-B
Sun 05:19:44 PM 32.7990 -111.3620 102° East 479 551 43,000  Level FlightAware ADS-B
Sun 05:20:22 PM 32.7830 -111.2660 101° East 479 551 43,000  Level FlightAware ADS-B
Sun 05:20:58 PM 32.7670 -111.1740 102° East 478 550 43,000  Level FlightAware ADS-B
Sun 05:21:30 PM 32.7530 -111.0920 101° East 477 549 43,000  Level FlightAware ADS-B
Sun 05:22:04 PM 32.7370 -111.0040 102° East 478 550 43,000  Level FlightAware ADS-B
Sun 05:22:39 PM 32.7210 -110.9120 102° East 479 551 43,000  Level FlightAware ADS-B
Sun 05:23:15 PM 32.7050 -110.8200 102° East 480 552 43,000  Level FlightAware ADS-B
Sun 05:23:51 PM 32.6890 -110.7270 102° East 481 554 43,000  Level FlightAware ADS-B
Sun 05:24:23 PM 32.6740 -110.6440 102° East 479 551 43,000  Level FlightAware ADS-B
Sun 05:24:59 PM 32.6570 -110.5510 102° East 479 551 43,000  Level FlightAware ADS-B
Sun 05:25:37 PM 32.6400 -110.4550 102° East 479 551 43,000  Level FlightAware ADS-B
Sun 05:26:09 PM 32.6260 -110.3730 101° East 480 552 43,000  Level FlightAware ADS-B
Sun 05:26:47 PM 32.6070 -110.2730 103° East 479 551 43,000  Level FlightAware ADS-B
Sun 05:27:21 PM 32.5920 -110.1880 102° East 475 547 43,000  Level FlightAware ADS-B
Sun 05:27:57 PM 32.5750 -110.0950 102° East 473 544 43,000  Level FlightAware ADS-B
Sun 05:28:27 PM 32.5620 -110.0220 102° East 472 543 43,000  Level FlightAware ADS-B
Sun 05:29:07 PM 32.5430 -109.9190 102° East 474 545 43,000  Level FlightAware ADS-B
Sun 05:29:39 PM 32.5280 -109.8370 102° East 474 545 43,000  Level FlightAware ADS-B
Sun 05:30:09 PM 32.5140 -109.7620 102° East 474 545 43,000  Level FlightAware ADS-B
Sun 05:30:51 PM 32.4940 -109.6550 102° East 476 548 43,000  Level FlightAware ADS-B
Sun 05:31:27 PM 32.4770 -109.5650 103° East 475 547 43,000  Level FlightAware ADS-B
Sun 05:32:01 PM 32.4610 -109.4780 102° East 476 548 43,000  Level FlightAware ADS-B
Sun 05:32:37 PM 32.4440 -109.3860 102° East 477 549 43,000  Level FlightAware ADS-B
Sun 05:33:09 PM 32.4280 -109.3060 103° East 476 548 43,000  Level FlightAware ADS-B
Sun 05:33:43 PM 32.4120 -109.2180 102° East 475 547 43,000  Level FlightAware ADS-B
Sun 05:34:19 PM 32.3950 -109.1280 103° East 474 545 43,000  Level FlightAware ADS-B
Sun 05:34:55 PM 32.3770 -109.0370 103° East 474 545 43,000  Level FlightAware ADS-B
Sun 05:35:27 PM 32.3620 -108.9570 102° East 474 545 43,000  Level FlightAware ADS-B
Sun 05:36:07 PM 32.3420 -108.8560 103° East 474 545 43,000  Level FlightAware ADS-B
Sun 05:36:41 PM 32.3250 -108.7690 103° East 476 548 43,000  Level FlightAware ADS-B
Sun 05:37:15 PM 32.3090 -108.6830 102° East 476 548 43,000  Level FlightAware ADS-B
Sun 05:37:51 PM 32.2920 -108.5960 103° East 479 551 43,000  Level FlightAware ADS-B
Sun 05:38:31 PM 32.2730 -108.4990 103° East 477 549 43,000  Level FlightAware ADS-B
Sun 05:39:06 PM 32.2550 -108.4090 103° East 476 548 43,000  Level FlightAware ADS-B
Sun 05:39:41 PM 32.2360 -108.3110 103° East 477 549 43,000  Level FlightAware ADS-B
Sun 05:40:20 PM 32.2220 -108.2360 102° East 477 549 43,000  Level FlightAware ADS-B
Sun 05:40:56 PM 32.2010 -108.1310 103° East 477 549 43,000  Level FlightAware ADS-B
Sun 05:41:32 PM 32.1870 -108.0530 102° East 477 549 43,000  Level FlightAware ADS-B
Sun 05:42:08 PM 32.1730 -107.9750 102° East 477 549 43,000  Level FlightAware ADS-B
Sun 05:42:46 PM 32.1580 -107.8930 102° East 477 549 43,000  Level FlightAware ADS-B
Sun 05:43:23 PM 32.1440 -107.8130 102° East 477 549 43,000  Level FlightAware ADS-B
Sun 05:43:59 PM 32.1300 -107.7350 102° East 477 549 43,000  Level FlightAware ADS-B
Sun 05:44:35 PM 32.1160 -107.6570 102° East 477 549 43,000  Level FlightAware ADS-B
Sun 05:45:12 PM 32.1010 -107.5770 102° East 477 549 43,000  Level FlightAware ADS-B
Sun 05:45:48 PM 32.0870 -107.4990 102° East 477 549 43,000  Level FlightAware ADS-B
Sun 05:46:28 PM 32.0290 -107.2890 108° East 482 555 43,000  Level FlightAware ADS-B
Sun 05:47:03 PM 32.0080 -107.1890 104° East 483 556 43,000  Level FlightAware ADS-B
Sun 05:47:38 PM 31.9910 -107.1050 103° East 483 556 43,000  Level FlightAware ADS-B
Sun 05:48:13 PM 31.9710 -107.0120 104° East 485 558 43,000  Level FlightAware ADS-B
Sun 05:48:43 PM 31.9560 -106.9400 104° East 486 559 43,000  Level FlightAware ADS-B
Sun 05:49:18 PM 31.9370 -106.8480 104° East 486 559 43,000  Level FlightAware ADS-B
Sun 05:49:58 PM 31.9150 -106.7440 104° East 486 559 43,000  Level FlightAware ADS-B
Sun 05:50:33 PM 31.8970 -106.6590 104° East 487 560 43,000  Level FlightAware ADS-B
Sun 05:51:08 PM 31.8780 -106.5700 104° East 487 560 43,000  Level FlightAware ADS-B
Sun 05:51:45 PM 31.8600 -106.4890 105° East 487 560 43,000  Level FlightAware ADS-B
Sun 05:52:13 PM 31.8410 -106.3980 104° East 489 563 43,000  Level FlightAware ADS-B
Sun 05:52:53 PM 31.8190 -106.2970 104° East 489 563 43,000  Level FlightAware ADS-B
Sun 05:53:28 PM 31.7980 -106.2050 105° East 490 564 43,000  Level FlightAware ADS-B
Sun 05:54:03 PM 31.7750 -106.1160 107° East 490 564 43,000  Level FlightAware ADS-B
Sun 05:54:38 PM 31.7530 -106.0280 106° East 491 565 43,000  Level FlightAware ADS-B
Sun 05:55:13 PM 31.7300 -105.9380 107° East 490 564 43,000  Level FlightAware ADS-B
Sun 05:55:53 PM 31.7060 -105.8380 106° East 491 565 43,000  Level FlightAware ADS-B
Sun 05:56:28 PM 31.6840 -105.7510 107° East 492 566 43,000  Level FlightAware ADS-B
Sun 05:57:08 PM 31.6580 -105.6500 107° East 494 568 43,000  Level FlightAware ADS-B
Sun 05:57:45 PM 31.6380 -105.5650 105° East 494 568 43,000  Level FlightAware ADS-B
Sun 05:58:21 PM 31.6180 -105.4860 107° East 494 568 43,000  Level FlightAware ADS-B
Sun 05:58:57 PM 31.5990 -105.4070 106° East 494 568 43,000  Level FlightAware ADS-B
Sun 05:59:33 PM 31.5800 -105.3280 106° East 494 568 43,000  Level FlightAware ADS-B
Sun 06:00:09 PM 31.5610 -105.2490 106° East 494 568 43,000  Level FlightAware ADS-B
Sun 06:00:41 PM 31.5420 -105.0950 98° East 493 567 43,000  Level FlightAware ADS-B
Sun 06:01:11 PM 31.5310 -105.0110 99° East 492 566 43,000  Level FlightAware ADS-B
Sun 06:01:48 PM 31.5210 -104.9280 98° East 492 566 43,000  Level FlightAware ADS-B
Sun 06:02:29 PM 31.5060 -104.8060 98° East 494 568 43,000  Level FlightAware ADS-B
Sun 06:03:05 PM 31.4940 -104.7110 98° East 495 570 43,000  Level FlightAware ADS-B
Sun 06:03:37 PM 31.4830 -104.6280 99° East 494 568 43,000  Level FlightAware ADS-B
Sun 06:04:13 PM 31.4710 -104.5340 98° East 491 565 43,000  Level FlightAware ADS-B
Sun 06:04:49 PM 31.4580 -104.4360 99° East 490 564 43,000  Level FlightAware ADS-B
Sun 06:05:22 PM 31.4470 -104.3560 99° East 488 562 43,000  Level FlightAware ADS-B
Sun 06:06:04 PM 31.4350 -104.2570 98° East 486 559 43,000  Level FlightAware ADS-B
Sun 06:06:40 PM 31.4120 -104.1510 104° East 486 559 43,000  Level FlightAware ADS-B
Sun 06:07:14 PM 31.3940 -104.0640 104° East 487 560 43,000  Level FlightAware ADS-B
Sun 06:07:48 PM 31.3760 -103.9770 104° East 488 562 43,000  Level FlightAware ADS-B
Sun 06:08:32 PM 31.3570 -103.8810 103° East 488 562 43,000  Level FlightAware ADS-B
Sun 06:09:08 PM 31.3410 -103.8020 103° East 488 562 43,000  Level FlightAware ADS-B
Sun 06:09:44 PM 31.3260 -103.7240 103° East 488 562 43,000  Level FlightAware ADS-B
Sun 06:10:20 PM 31.3100 -103.6450 103° East 488 562 43,000  Level FlightAware ADS-B
Sun 06:10:56 PM 31.2950 -103.5660 103° East 488 562 43,000  Level FlightAware ADS-B
Sun 06:11:30 PM 31.2800 -103.4920 103° East 488 562 43,000  Level FlightAware ADS-B
Sun 06:12:07 PM 31.2640 -103.4110 103° East 488 562 43,000  Level FlightAware ADS-B
Sun 06:12:44 PM 31.2480 -103.3300 103° East 488 562 43,000  Level FlightAware ADS-B
Sun 06:13:20 PM 31.2330 -103.2510 103° East 488 562 43,000  Level FlightAware ADS-B
Sun 06:13:56 PM 31.2170 -103.1720 103° East 488 562 43,000  Level FlightAware ADS-B
Sun 06:14:32 PM 31.2010 -103.0940 103° East 488 562 43,000  Level FlightAware ADS-B
Sun 06:15:08 PM 31.1860 -103.0150 102° East 488 562 43,000  Level FlightAware ADS-B
Sun 06:15:44 PM 31.1700 -102.9360 103° East 488 562 43,000  Level FlightAware ADS-B
Sun 06:16:21 PM 31.1540 -102.8550 103° East 488 562 43,000  Level FlightAware ADS-B
Sun 06:16:57 PM 31.1390 -102.7770 103° East 488 562 43,000  Level FlightAware ADS-B
Sun 06:17:34 PM 31.1230 -102.6960 103° East 488 562 43,000  Level FlightAware ADS-B
Sun 06:18:16 PM 30.9519 -102.4431 103° East 484 557 43,000  Level Albuquerque Center
Sun 06:18:49 PM 30.9247 -102.3553 110° East 482 555 43,000 -63 Level Houston Center
Sun 06:19:51 PM 30.8803 -102.2100 110° East 483 556 42,900 -48 Descending Houston Center
Sun 06:20:53 PM 30.8264 -102.0378 110° East 480 552 42,900  Level Houston Center
Sun 06:21:55 PM 30.7817 -101.8925 110° East 479 551 42,900 48 Level Houston Center
Sun 06:22:57 PM 30.7356 -101.7475 110° East 480 552 43,000 49 Climbing Houston Center
Sun 06:23:58 PM 30.6892 -101.6028 110° East 479 551 43,000  Level Houston Center
Sun 06:25:00 PM 30.6436 -101.4550 110° East 482 555 43,000  Level Houston Center
Sun 06:26:02 PM 30.5967 -101.3097 111° Southeast 482 555 43,000  Level Houston Center
Sun 06:27:04 PM 30.5508 -101.1642 110° East 482 555 43,000  Level Houston Center
Sun 06:28:06 PM 30.4947 -100.9894 110° East 481 554 43,000  Level Houston Center
Sun 06:29:07 PM 30.4486 -100.8467 111° Southeast 476 548 43,000 -49 Level Houston Center
Sun 06:30:09 PM 30.4011 -100.7028 111° Southeast 478 550 42,900  Descending Houston Center
Sun 06:31:11 PM 30.3539 -100.5583 111° Southeast 479 551 43,000  Climbing Houston Center
Sun 06:32:13 PM 30.3069 -100.4128 110° East 480 552 42,900 -49 Descending Houston Center
Sun 06:33:14 PM 30.2597 -100.2658 110° East 481 554 42,900 16 Level Houston Center
Sun 06:38:22 PM 30.0050 -99.5110 110° East 479 551 43,000 17 Climbing FlightAware ADS-B
Sun 06:39:02 PM 29.9780 -99.4290 111° Southeast 479 551 43,000  Level FlightAware ADS-B
Sun 06:39:38 PM 29.9530 -99.3560 112° Southeast 479 551 43,000  Level FlightAware ADS-B
Sun 06:40:14 PM 29.9290 -99.2830 111° Southeast 479 551 43,000  Level FlightAware ADS-B
Sun 06:40:56 PM 29.8830 -99.1540 112° Southeast 475 547 43,000  Level FlightAware ADS-B
Sun 06:41:39 PM 29.8550 -99.0660 110° East 475 547 43,000  Level FlightAware ADS-B
Sun 06:42:16 PM 29.8320 -98.9910 109° East 475 547 43,000  Level FlightAware ADS-B
Sun 06:42:25 PM 29.8075 -98.9331 116° Southeast 478 550 43,000  Level FlightAware ADS-B
Sun 06:42:59 PM 29.7803 -98.8541 112° Southeast 43,000  Level FlightAware ADS-B
Sun 06:43:08 PM 29.7728 -98.8322 112° Southeast 473 544 43,000  Level FlightAware ADS-B
Sun 06:43:14 PM 29.7679 -98.8181 112° Southeast 473 544 43,000  Level FlightAware ADS-B
Sun 06:43:49 PM 29.7399 -98.7371 112° Southeast 474 545 43,000  Level FlightAware ADS-B
Sun 06:44:15 PM 29.7188 -98.6765 112° Southeast 473 544 43,000 -105 Level FlightAware ADS-B
Sun 06:44:46 PM 29.6933 -98.6026 112° Southeast 474 545 42,900 -176 Descending FlightAware ADS-B
Sun 06:44:49 PM 29.6909 -98.5956 112° Southeast 474 545 42,900 -1,742 Level FlightAware ADS-B
Sun 06:45:17 PM 29.6683 -98.5310 112° Southeast 477 549 42,000 -2,270 Descending FlightAware ADS-B
Sun 06:45:26 PM 29.6616 -98.5100 110° East 480 552 41,500 -2,667 Descending FlightAware ADS-B
Sun 06:45:35 PM 29.6560 -98.4879 106° East 481 554 41,200 -1,862 Descending FlightAware ADS-B
Sun 06:45:55 PM 29.6477 -98.4374 101° East 480 552 40,600 -1,750 Descending FlightAware ADS-B
Sun 06:45:59 PM 29.6467 -98.4278 97° East 480 552 40,500 -1,935 Descending FlightAware ADS-B
Sun 06:46:26 PM 29.6460 -98.3565 91° East 481 554 39,600 -2,000 Descending FlightAware ADS-B
Sun 06:46:29 PM 29.6461 -98.3488 89° East 483 556 39,500 -2,250 Descending FlightAware ADS-B
Sun 06:46:58 PM 29.6472 -98.2765 89° East 491 565 38,400 -2,400 Descending FlightAware ADS-B
Sun 06:46:59 PM 29.6473 -98.2712 89° East 491 565 38,300 -2,400 Descending FlightAware ADS-B
Sun 06:47:28 PM 29.6482 -98.1975 89° East 494 568 37,200 -2,341 Descending FlightAware ADS-B
Sun 06:47:40 PM 29.6486 -98.1645 89° East 494 568 36,700 -2,600 Descending FlightAware ADS-B
Sun 06:47:58 PM 29.6493 -98.1173 89° East 494 568 35,900 -2,125 Descending FlightAware ADS-B
Sun 06:48:28 PM 29.6501 -98.0399 89° East 498 573 35,000 -1,935 Descending FlightAware ADS-B
Sun 06:48:29 PM 29.6501 -98.0379 90° East 498 573 34,900 -1,600 Descending FlightAware ADS-B
Sun 06:48:43 PM 29.6497 -98.0008 91° East 499 574 34,600 -1,200 Descending FlightAware ADS-B
Sun 06:48:59 PM 29.6483 -97.9563 92° East 498 573 34,300 -1,174 Descending FlightAware ADS-B
Sun 06:49:29 PM 29.6445 -97.8768 93° East 497 572 33,700 -1,375 Descending FlightAware ADS-B
Sun 06:49:47 PM 29.6422 -97.8298 93° East 499 574 33,200 -1,313 Descending FlightAware ADS-B
Sun 06:50:01 PM 29.6402 -97.7927 94° East 499 574 33,000 -933 Descending FlightAware ADS-B
Sun 06:50:32 PM 29.6360 -97.7128 93° East 495 570 32,500 -1,154 Descending FlightAware ADS-B
Sun 06:50:53 PM 29.6331 -97.6572 93° East 499 574 32,000 -1,548 Descending FlightAware ADS-B
Sun 06:51:03 PM 29.6317 -97.6315 94° East 484 557 31,700 -2,063 Descending FlightAware ADS-B
Sun 06:51:25 PM 29.6286 -97.5751 94° East 483 556 30,900 -2,000 Descending FlightAware ADS-B
Sun 06:51:33 PM 29.6275 -97.5551 94° East 473 544 30,700 -1,895 Descending FlightAware ADS-B
Sun 06:52:03 PM 29.6235 -97.4823 94° East 463 533 29,700 -2,100 Descending FlightAware ADS-B
Sun 06:52:33 PM 29.6193 -97.4081 94° East 455 524 28,600 -2,125 Descending FlightAware ADS-B
Sun 06:52:51 PM 29.6170 -97.3668 94° East 453 521 28,000 -2,129 Descending FlightAware ADS-B
Sun 06:53:04 PM 29.6153 -97.3353 94° East 450 518 27,500 -2,100 Descending FlightAware ADS-B
Sun 06:53:31 PM 29.6117 -97.2718 94° East 451 519 26,600 -2,000 Descending FlightAware ADS-B
Sun 06:53:34 PM 29.6112 -97.2634 94° East 445 512 26,500 -2,294 Descending FlightAware ADS-B
Sun 06:54:05 PM 29.6072 -97.1903 94° East 440 506 25,300 -2,129 Descending FlightAware ADS-B
Sun 06:54:36 PM 29.6032 -97.1196 94° East 433 498 24,300 -2,066 Descending FlightAware ADS-B
Sun 06:55:06 PM 29.5993 -97.0509 94° East 427 491 23,200 -2,262 Descending FlightAware ADS-B
Sun 06:55:37 PM 29.5954 -96.9824 94° East 430 495 22,000 -2,222 Descending FlightAware ADS-B
Sun 06:56:00 PM 29.5922 -96.9298 94° East 432 497 21,200 -2,200 Descending FlightAware ADS-B
Sun 06:56:07 PM 29.5912 -96.9120 94° East 433 498 20,900 -2,368 Descending FlightAware ADS-B
Sun 06:56:38 PM 29.5872 -96.8416 94° East 430 495 19,700 -2,298 Descending FlightAware ADS-B
Sun 06:56:54 PM 29.5849 -96.8050 94° East 424 488 19,100 -2,400 Descending FlightAware ADS-B
Sun 06:57:08 PM 29.5831 -96.7743 94° East 420 483 18,500 -2,133 Descending FlightAware ADS-B
Sun 06:57:39 PM 29.5790 -96.7076 94° East 405 466 17,500 -2,164 Descending FlightAware ADS-B
Sun 06:58:09 PM 29.5750 -96.6435 94° East 397 457 16,300 -2,600 Descending FlightAware ADS-B
Sun 06:58:39 PM 29.5711 -96.5808 94° East 397 457 14,900 -2,800 Descending FlightAware ADS-B
Sun 06:59:09 PM 29.5671 -96.5167 94° East 395 455 13,500 -2,656 Descending FlightAware ADS-B
Sun 06:59:40 PM 29.5633 -96.4536 94° East 387 445 12,200 -2,361 Descending FlightAware ADS-B
Sun 07:00:10 PM 29.5597 -96.3919 94° East 378 435 11,100 -1,500 Descending FlightAware ADS-B
Sun 07:00:40 PM 29.5562 -96.3347 94° East 349 402 10,700 -610 Descending FlightAware ADS-B
Sun 07:01:09 PM 29.5527 -96.2834 94° East 322 371 10,500 -508 Descending FlightAware ADS-B
Sun 07:01:39 PM 29.5493 -96.2311 94° East 330 380 10,200 -453 Descending FlightAware ADS-B
Sun 07:02:02 PM 29.5469 -96.1912 94° East 328 377 10,100 -414 Descending FlightAware ADS-B
Sun 07:02:08 PM 29.5468 -96.1821 91° East 326 375 10,000 -667 Descending FlightAware ADS-B
Sun 07:02:11 PM 29.5473 -96.1756 85° East 324 373 10,000  Level FlightAware ADS-B
Sun 07:02:14 PM 29.5480 -96.1702 82° East 322 371 10,000  Level FlightAware ADS-B
Sun 07:02:19 PM 29.5499 -96.1623 75° East 319 367 10,000 -667 Level FlightAware ADS-B
Sun 07:02:23 PM 29.5516 -96.1573 69° East 319 367 9,900 -857 Descending FlightAware ADS-B
Sun 07:02:26 PM 29.5537 -96.1516 67° East 318 366 9,900  Level FlightAware ADS-B
Sun 07:02:29 PM 29.5559 -96.1467 63° Northeast 316 364 9,900  Level FlightAware ADS-B
Sun 07:02:40 PM 29.5642 -96.1311 59° Northeast 316 364 9,900  Level FlightAware ADS-B
Sun 07:02:56 PM 29.5752 -96.1090 60° Northeast 316 364 9,900  Level FlightAware ADS-B
Sun 07:03:11 PM 29.5862 -96.0865 61° Northeast 318 366 9,900  Level FlightAware ADS-B
Sun 07:03:26 PM 29.5976 -96.0643 59° Northeast 318 366 9,900  Level FlightAware ADS-B
Sun 07:03:41 PM 29.6089 -96.0418 60° Northeast 317 365 9,900  Level FlightAware ADS-B
Sun 07:03:57 PM 29.6198 -96.0202 60° Northeast 303 349 9,900 -387 Level FlightAware ADS-B
Sun 07:04:12 PM 29.6302 -95.9995 60° Northeast 291 335 9,700 -1,000 Descending FlightAware ADS-B
Sun 07:04:27 PM 29.6402 -95.9798 60° Northeast 284 327 9,400 -1,400 Descending FlightAware ADS-B
Sun 07:04:42 PM 29.6501 -95.9601 60° Northeast 281 323 9,000 -1,448 Descending FlightAware ADS-B
Sun 07:04:56 PM 29.6594 -95.9416 60° Northeast 279 321 8,700 -947 Descending FlightAware ADS-B
Sun 07:05:01 PM 29.6627 -95.9358 57° Northeast 278 320 8,700 -750 Level FlightAware ADS-B
Sun 07:05:04 PM 29.6651 -95.9320 54° Northeast 276 318 8,600 -1,000 Descending FlightAware ADS-B
Sun 07:05:07 PM 29.6676 -95.9288 48° Northeast 275 316 8,600 -857 Level FlightAware ADS-B
Sun 07:05:11 PM 29.6708 -95.9253 44° Northeast 274 315 8,500 -1,714 Descending FlightAware ADS-B
Sun 07:05:14 PM 29.6742 -95.9222 38° Northeast 274 315 8,400 -1,714 Descending FlightAware ADS-B
Sun 07:05:18 PM 29.6787 -95.9190 32° Northeast 274 315 8,300 -1,333 Descending FlightAware ADS-B
Sun 07:05:23 PM 29.6839 -95.9159 27° Northeast 274 315 8,200 -1,500 Descending FlightAware ADS-B
Sun 07:05:30 PM 29.6922 -95.9114 25° Northeast 275 316 8,000 -1,800 Descending FlightAware ADS-B
Sun 07:05:33 PM 29.6955 -95.9094 28° Northeast 275 316 7,900 -1,714 Descending FlightAware ADS-B
Sun 07:05:37 PM 29.7001 -95.9060 33° Northeast 276 318 7,800 -1,714 Descending FlightAware ADS-B
Sun 07:05:40 PM 29.7033 -95.9032 37° Northeast 275 316 7,700 -1,714 Descending FlightAware ADS-B
Sun 07:05:44 PM 29.7066 -95.9000 40° Northeast 276 318 7,600 -2,250 Descending FlightAware ADS-B
Sun 07:05:48 PM 29.7108 -95.8956 42° Northeast 277 319 7,400 -1,500 Descending FlightAware ADS-B
Sun 07:06:04 PM 29.7252 -95.8793 45° Northeast 277 319 7,100 -774 Descending FlightAware ADS-B
Sun 07:06:19 PM 29.7395 -95.8640 43° Northeast 277 319 7,000 -387 Descending FlightAware ADS-B
Sun 07:06:35 PM 29.7541 -95.8488 42° Northeast 276 318 6,900  Descending FlightAware ADS-B
Sun 07:07:05 PM 29.7831 -95.8199 41° Northeast 274 315 7,000 -133 Climbing FlightAware ADS-B
Sun 07:07:20 PM 29.7976 -95.8057 40° Northeast 272 313 6,800 -1,200 Descending FlightAware ADS-B
Sun 07:07:35 PM 29.8124 -95.7913 40° Northeast 272 313 6,400 -1,548 Descending FlightAware ADS-B
Sun 07:07:51 PM 29.8271 -95.7768 41° Northeast 273 314 6,000 -1,355 Descending FlightAware ADS-B
Sun 07:08:06 PM 29.8420 -95.7621 41° Northeast 274 315 5,700 -1,355 Descending FlightAware ADS-B
Sun 07:08:22 PM 29.8572 -95.7470 41° Northeast 274 315 5,300 -1,313 Descending FlightAware ADS-B
Sun 07:08:38 PM 29.8724 -95.7320 41° Northeast 274 315 5,000 -1,161 Descending FlightAware ADS-B
Sun 07:08:53 PM 29.8866 -95.7177 41° Northeast 270 311 4,700 -800 Descending FlightAware ADS-B
Sun 07:09:08 PM 29.9008 -95.7035 41° Northeast 262 302 4,600 -800 Descending FlightAware ADS-B
Sun 07:09:23 PM 29.9147 -95.6895 41° Northeast 261 300 4,300 -1,161 Descending FlightAware ADS-B
Sun 07:09:39 PM 29.9288 -95.6754 41° Northeast 256 295 4,000 -686 Descending FlightAware ADS-B
Sun 07:09:58 PM 29.9451 -95.6590 41° Northeast 249 287 3,900 -171 Descending FlightAware ADS-B
Sun 07:10:14 PM 29.9588 -95.6452 41° Northeast 233 268 3,900 -194 Level FlightAware ADS-B
Sun 07:10:29 PM 29.9711 -95.6329 41° Northeast 225 259 3,800 -414 Descending FlightAware ADS-B
Sun 07:10:43 PM 29.9815 -95.6224 41° Northeast 219 252 3,700 -300 Descending FlightAware ADS-B
Sun 07:10:49 PM 29.9860 -95.6175 43° Northeast 215 247 3,700 -600 Level FlightAware ADS-B
Sun 07:10:53 PM 29.9882 -95.6143 52° Northeast 211 243 3,600 -667 Descending FlightAware ADS-B
Sun 07:10:58 PM 29.9904 -95.6095 62° Northeast 207 238 3,600  Level FlightAware ADS-B
Sun 07:11:01 PM 29.9915 -95.6057 72° East 204 235 3,600  Level FlightAware ADS-B
Sun 07:11:05 PM 29.9923 -95.6015 78° East 202 232 3,600 -667 Level FlightAware ADS-B
Sun 07:11:10 PM 29.9927 -95.5968 84° East 200 230 3,500 -632 Descending FlightAware ADS-B
Sun 07:11:24 PM 29.9933 -95.5822 87° East 194 223 3,400 -261 Descending FlightAware ADS-B
Sun 07:11:33 PM 29.9934 -95.5726 89° East 192 221 3,400 -462 Level FlightAware ADS-B
Sun 07:11:50 PM 29.9932 -95.5557 91° East 190 219 3,200 -563 Descending FlightAware ADS-B
Sun 07:12:05 PM 29.9931 -95.5407 90° East 191 220 3,100 -800 Descending FlightAware ADS-B
Sun 07:12:20 PM 29.9931 -95.5247 90° East 195 224 2,800 -1,034 Descending FlightAware ADS-B
Sun 07:12:34 PM 29.9932 -95.5105 90° East 191 220 2,600 -1,000 Descending FlightAware ADS-B
Sun 07:12:50 PM 29.9932 -95.4948 90° East 183 211 2,300 -960 Descending FlightAware ADS-B
Sun 07:13:24 PM 29.9932 -95.4635 90° East 158 182 1,800 -857 Descending FlightAware ADS-B
Sun 07:13:39 PM 29.9933 -95.4515 89° East 142 163 1,600 -750 Descending FlightAware ADS-B
Sun 07:13:56 PM 29.9933 -95.4396 90° East 135 155 1,400 -563 Descending FlightAware ADS-B
Sun 07:14:11 PM 29.9933 -95.4285 90° East 135 155 1,300 -600 Descending FlightAware ADS-B
Sun 07:14:26 PM 29.9934 -95.4174 89° East 134 154 1,100 -828 Descending FlightAware ADS-B
Sun 07:14:40 PM 29.9934 -95.4081 90° East 131 151 900 -643 Descending FlightAware ADS-B
Sun 07:14:54 PM 29.9934 -95.3980 90° East 133 153 800 -600 Descending FlightAware ADS-B
Sun 07:15:10 PM 29.9935 -95.3871 89° East 132 152 600 -774 Descending FlightAware ADS-B
Sun 07:15:25 PM 29.9934 -95.3765 91° East 132 152 400 -581 Descending FlightAware ADS-B
Sun 07:15:41 PM 29.9935 -95.3649 89° East 132 152 300 -600 Descending FlightAware ADS-B
Sun 07:15:55 PM 29.9935 -95.3556 90° East 132 152 100 -857 Descending FlightAware ADS-B

Login

Don't have an account? Register now (free) for customized features, flight alerts, and more!